sensor_id;sensor_type;location;lat;lon;timestamp;P1;durP1;ratioP1;P2;durP2;ratioP2
39022;SDS011;25908;51.984;5.928;2023-02-19T00:00:02;32.03;;;20.52;;
39022;SDS011;25908;51.984;5.928;2023-02-19T00:02:28;47.28;;;21.20;;
39022;SDS011;25908;51.984;5.928;2023-02-19T00:04:54;34.88;;;20.02;;
39022;SDS011;25908;51.984;5.928;2023-02-19T00:07:19;41.65;;;21.95;;
39022;SDS011;25908;51.984;5.928;2023-02-19T00:09:45;42.45;;;23.13;;
39022;SDS011;25908;51.984;5.928;2023-02-19T00:12:10;45.35;;;23.85;;
39022;SDS011;25908;51.984;5.928;2023-02-19T00:14:36;45.00;;;22.95;;
39022;SDS011;25908;51.984;5.928;2023-02-19T00:17:02;37.53;;;21.67;;
39022;SDS011;25908;51.984;5.928;2023-02-19T00:19:27;38.97;;;22.00;;
39022;SDS011;25908;51.984;5.928;2023-02-19T00:21:53;42.63;;;20.67;;
39022;SDS011;25908;51.984;5.928;2023-02-19T00:24:19;42.80;;;22.83;;
39022;SDS011;25908;51.984;5.928;2023-02-19T00:26:45;40.30;;;23.23;;
39022;SDS011;25908;51.984;5.928;2023-02-19T00:29:15;46.05;;;23.13;;
39022;SDS011;25908;51.984;5.928;2023-02-19T00:31:44;45.33;;;25.00;;
39022;SDS011;25908;51.984;5.928;2023-02-19T00:34:10;41.47;;;20.90;;
39022;SDS011;25908;51.984;5.928;2023-02-19T00:36:37;37.10;;;22.08;;
39022;SDS011;25908;51.984;5.928;2023-02-19T00:39:05;40.38;;;21.15;;
39022;SDS011;25908;51.984;5.928;2023-02-19T00:41:31;39.35;;;21.23;;
39022;SDS011;25908;51.984;5.928;2023-02-19T00:43:58;41.33;;;21.85;;
39022;SDS011;25908;51.984;5.928;2023-02-19T00:46:27;34.60;;;21.40;;
39022;SDS011;25908;51.984;5.928;2023-02-19T00:49:00;37.10;;;20.63;;
39022;SDS011;25908;51.984;5.928;2023-02-19T00:51:29;40.97;;;22.00;;
39022;SDS011;25908;51.984;5.928;2023-02-19T00:53:57;37.97;;;22.23;;
39022;SDS011;25908;51.984;5.928;2023-02-19T00:56:23;35.38;;;21.50;;
39022;SDS011;25908;51.984;5.928;2023-02-19T00:58:49;42.33;;;23.48;;
39022;SDS011;25908;51.984;5.928;2023-02-19T01:01:15;36.45;;;21.58;;
39022;SDS011;25908;51.984;5.928;2023-02-19T01:03:41;37.55;;;22.02;;
39022;SDS011;25908;51.984;5.928;2023-02-19T01:06:07;33.45;;;21.92;;
39022;SDS011;25908;51.984;5.928;2023-02-19T01:08:34;34.38;;;20.85;;
39022;SDS011;25908;51.984;5.928;2023-02-19T01:11:01;29.45;;;20.80;;
39022;SDS011;25908;51.984;5.928;2023-02-19T01:13:27;35.78;;;21.08;;
39022;SDS011;25908;51.984;5.928;2023-02-19T01:16:01;30.17;;;19.10;;
39022;SDS011;25908;51.984;5.928;2023-02-19T01:18:31;32.50;;;19.55;;
39022;SDS011;25908;51.984;5.928;2023-02-19T01:20:57;28.88;;;20.42;;
39022;SDS011;25908;51.984;5.928;2023-02-19T01:23:22;32.58;;;17.65;;
39022;SDS011;25908;51.984;5.928;2023-02-19T01:25:48;34.80;;;19.75;;
39022;SDS011;25908;51.984;5.928;2023-02-19T01:28:14;27.90;;;17.10;;
39022;SDS011;25908;51.984;5.928;2023-02-19T01:30:39;32.20;;;17.85;;
39022;SDS011;25908;51.984;5.928;2023-02-19T01:33:06;31.25;;;16.70;;
39022;SDS011;25908;51.984;5.928;2023-02-19T01:35:32;30.17;;;16.35;;
39022;SDS011;25908;51.984;5.928;2023-02-19T01:38:01;25.65;;;16.77;;
39022;SDS011;25908;51.984;5.928;2023-02-19T01:40:27;28.58;;;16.25;;
39022;SDS011;25908;51.984;5.928;2023-02-19T01:42:53;23.40;;;15.57;;
39022;SDS011;25908;51.984;5.928;2023-02-19T01:45:28;29.05;;;16.73;;
39022;SDS011;25908;51.984;5.928;2023-02-19T01:48:00;28.40;;;16.70;;
39022;SDS011;25908;51.984;5.928;2023-02-19T01:50:32;27.83;;;16.45;;
39022;SDS011;25908;51.984;5.928;2023-02-19T01:53:03;28.23;;;15.55;;
39022;SDS011;25908;51.984;5.928;2023-02-19T01:55:32;28.55;;;15.82;;
39022;SDS011;25908;51.984;5.928;2023-02-19T01:57:59;25.88;;;16.73;;
39022;SDS011;25908;51.984;5.928;2023-02-19T02:00:27;22.45;;;14.85;;
39022;SDS011;25908;51.984;5.928;2023-02-19T02:02:53;26.38;;;14.65;;
39022;SDS011;25908;51.984;5.928;2023-02-19T02:08:05;38.38;;;15.20;;
39022;SDS011;25908;51.984;5.928;2023-02-19T02:10:49;25.88;;;14.38;;
39022;SDS011;25908;51.984;5.928;2023-02-19T02:13:16;33.17;;;15.98;;
39022;SDS011;25908;51.984;5.928;2023-02-19T02:15:50;24.42;;;13.80;;
39022;SDS011;25908;51.984;5.928;2023-02-19T02:24:11;23.85;;;12.60;;
39022;SDS011;25908;51.984;5.928;2023-02-19T02:32:32;28.88;;;12.52;;
39022;SDS011;25908;51.984;5.928;2023-02-19T02:35:10;23.48;;;11.40;;
39022;SDS011;25908;51.984;5.928;2023-02-19T02:37:38;26.88;;;12.25;;
39022;SDS011;25908;51.984;5.928;2023-02-19T02:40:06;24.20;;;11.30;;
39022;SDS011;25908;51.984;5.928;2023-02-19T02:42:37;23.05;;;11.30;;
39022;SDS011;25908;51.984;5.928;2023-02-19T02:45:19;19.83;;;9.80;;
39022;SDS011;25908;51.984;5.928;2023-02-19T02:47:58;30.15;;;10.98;;
39022;SDS011;25908;51.984;5.928;2023-02-19T02:50:51;24.10;;;9.80;;
39022;SDS011;25908;51.984;5.928;2023-02-19T02:53:29;22.17;;;8.98;;
39022;SDS011;25908;51.984;5.928;2023-02-19T02:56:19;25.63;;;9.52;;
39022;SDS011;25908;51.984;5.928;2023-02-19T02:58:45;22.55;;;9.35;;
39022;SDS011;25908;51.984;5.928;2023-02-19T03:01:18;21.70;;;9.45;;
39022;SDS011;25908;51.984;5.928;2023-02-19T03:04:19;20.83;;;8.98;;
39022;SDS011;25908;51.984;5.928;2023-02-19T03:06:50;19.92;;;9.10;;
39022;SDS011;25908;51.984;5.928;2023-02-19T03:09:19;24.02;;;9.60;;
39022;SDS011;25908;51.984;5.928;2023-02-19T03:11:54;20.17;;;9.50;;
39022;SDS011;25908;51.984;5.928;2023-02-19T03:14:44;21.77;;;8.07;;
39022;SDS011;25908;51.984;5.928;2023-02-19T03:17:36;19.25;;;7.85;;
39022;SDS011;25908;51.984;5.928;2023-02-19T03:20:25;21.38;;;8.90;;
39022;SDS011;25908;51.984;5.928;2023-02-19T03:22:52;18.83;;;7.75;;
39022;SDS011;25908;51.984;5.928;2023-02-19T03:25:21;19.02;;;7.70;;
39022;SDS011;25908;51.984;5.928;2023-02-19T03:28:10;19.63;;;7.95;;
39022;SDS011;25908;51.984;5.928;2023-02-19T03:30:39;17.10;;;7.03;;
39022;SDS011;25908;51.984;5.928;2023-02-19T03:33:17;21.73;;;7.80;;
39022;SDS011;25908;51.984;5.928;2023-02-19T03:35:51;19.33;;;7.28;;
39022;SDS011;25908;51.984;5.928;2023-02-19T03:38:23;18.08;;;7.70;;
39022;SDS011;25908;51.984;5.928;2023-02-19T03:44:02;18.33;;;7.10;;
39022;SDS011;25908;51.984;5.928;2023-02-19T03:46:50;16.33;;;7.65;;
39022;SDS011;25908;51.984;5.928;2023-02-19T03:49:28;15.15;;;6.47;;
39022;SDS011;25908;51.984;5.928;2023-02-19T03:52:03;15.70;;;6.65;;
39022;SDS011;25908;51.984;5.928;2023-02-19T03:54:34;15.77;;;6.68;;
39022;SDS011;25908;51.984;5.928;2023-02-19T04:00:06;15.70;;;6.53;;
39022;SDS011;25908;51.984;5.928;2023-02-19T04:02:47;20.65;;;7.07;;
39022;SDS011;25908;51.984;5.928;2023-02-19T04:05:18;15.98;;;6.93;;
39022;SDS011;25908;51.984;5.928;2023-02-19T04:07:58;13.48;;;6.40;;
39022;SDS011;25908;51.984;5.928;2023-02-19T04:10:28;15.05;;;6.32;;
39022;SDS011;25908;51.984;5.928;2023-02-19T04:12:56;12.35;;;5.95;;
39022;SDS011;25908;51.984;5.928;2023-02-19T04:15:26;17.88;;;6.28;;
39022;SDS011;25908;51.984;5.928;2023-02-19T04:17:57;14.27;;;6.07;;
39022;SDS011;25908;51.984;5.928;2023-02-19T04:20:27;14.65;;;5.93;;
39022;SDS011;25908;51.984;5.928;2023-02-19T04:22:56;17.13;;;6.03;;
39022;SDS011;25908;51.984;5.928;2023-02-19T04:25:22;11.68;;;5.90;;
39022;SDS011;25908;51.984;5.928;2023-02-19T04:27:50;14.13;;;5.80;;
39022;SDS011;25908;51.984;5.928;2023-02-19T04:30:15;10.13;;;5.68;;
39022;SDS011;25908;51.984;5.928;2023-02-19T04:32:41;12.98;;;5.47;;
39022;SDS011;25908;51.984;5.928;2023-02-19T04:35:07;13.52;;;5.85;;
39022;SDS011;25908;51.984;5.928;2023-02-19T04:37:32;14.93;;;6.70;;
39022;SDS011;25908;51.984;5.928;2023-02-19T04:39:58;11.93;;;5.82;;
39022;SDS011;25908;51.984;5.928;2023-02-19T04:42:23;11.20;;;6.00;;
39022;SDS011;25908;51.984;5.928;2023-02-19T04:44:49;11.70;;;5.97;;
39022;SDS011;25908;51.984;5.928;2023-02-19T04:47:15;12.70;;;5.82;;
39022;SDS011;25908;51.984;5.928;2023-02-19T04:49:43;11.95;;;5.60;;
39022;SDS011;25908;51.984;5.928;2023-02-19T04:52:10;12.85;;;5.68;;
39022;SDS011;25908;51.984;5.928;2023-02-19T04:54:36;9.77;;;5.72;;
39022;SDS011;25908;51.984;5.928;2023-02-19T04:57:01;16.20;;;5.95;;
39022;SDS011;25908;51.984;5.928;2023-02-19T04:59:27;11.55;;;5.93;;
39022;SDS011;25908;51.984;5.928;2023-02-19T05:01:53;10.98;;;5.63;;
39022;SDS011;25908;51.984;5.928;2023-02-19T05:04:18;12.02;;;5.55;;
39022;SDS011;25908;51.984;5.928;2023-02-19T05:06:44;10.88;;;5.78;;
39022;SDS011;25908;51.984;5.928;2023-02-19T05:09:09;15.43;;;5.63;;
39022;SDS011;25908;51.984;5.928;2023-02-19T05:11:35;10.63;;;5.93;;
39022;SDS011;25908;51.984;5.928;2023-02-19T05:14:00;12.40;;;5.45;;
39022;SDS011;25908;51.984;5.928;2023-02-19T05:16:26;13.55;;;5.80;;
39022;SDS011;25908;51.984;5.928;2023-02-19T05:18:51;12.63;;;6.03;;
39022;SDS011;25908;51.984;5.928;2023-02-19T05:21:17;15.52;;;6.10;;
39022;SDS011;25908;51.984;5.928;2023-02-19T05:23:43;14.13;;;5.72;;
39022;SDS011;25908;51.984;5.928;2023-02-19T05:26:14;13.73;;;5.65;;
39022;SDS011;25908;51.984;5.928;2023-02-19T05:28:42;15.00;;;6.38;;
39022;SDS011;25908;51.984;5.928;2023-02-19T05:31:09;16.40;;;6.90;;
39022;SDS011;25908;51.984;5.928;2023-02-19T05:33:35;17.98;;;7.30;;
39022;SDS011;25908;51.984;5.928;2023-02-19T05:36:04;12.82;;;6.03;;
39022;SDS011;25908;51.984;5.928;2023-02-19T05:38:31;12.27;;;5.75;;
39022;SDS011;25908;51.984;5.928;2023-02-19T05:41:10;12.77;;;6.32;;
39022;SDS011;25908;51.984;5.928;2023-02-19T05:43:42;15.20;;;6.22;;
39022;SDS011;25908;51.984;5.928;2023-02-19T05:46:09;14.32;;;6.43;;
39022;SDS011;25908;51.984;5.928;2023-02-19T05:48:35;18.35;;;6.43;;
39022;SDS011;25908;51.984;5.928;2023-02-19T05:51:02;14.90;;;6.07;;
39022;SDS011;25908;51.984;5.928;2023-02-19T05:53:32;13.05;;;5.97;;
39022;SDS011;25908;51.984;5.928;2023-02-19T05:55:58;13.30;;;6.20;;
39022;SDS011;25908;51.984;5.928;2023-02-19T05:58:24;14.30;;;6.53;;
39022;SDS011;25908;51.984;5.928;2023-02-19T06:00:51;13.40;;;5.90;;
39022;SDS011;25908;51.984;5.928;2023-02-19T06:03:16;13.13;;;5.68;;
39022;SDS011;25908;51.984;5.928;2023-02-19T06:05:42;12.07;;;5.70;;
39022;SDS011;25908;51.984;5.928;2023-02-19T06:08:08;13.95;;;6.25;;
39022;SDS011;25908;51.984;5.928;2023-02-19T06:10:37;18.63;;;6.30;;
39022;SDS011;25908;51.984;5.928;2023-02-19T06:13:07;13.48;;;5.38;;
39022;SDS011;25908;51.984;5.928;2023-02-19T06:15:33;19.63;;;6.22;;
39022;SDS011;25908;51.984;5.928;2023-02-19T06:17:59;16.42;;;5.75;;
39022;SDS011;25908;51.984;5.928;2023-02-19T06:20:25;15.00;;;6.10;;
39022;SDS011;25908;51.984;5.928;2023-02-19T06:22:51;14.20;;;5.65;;
39022;SDS011;25908;51.984;5.928;2023-02-19T06:25:17;13.13;;;5.70;;
39022;SDS011;25908;51.984;5.928;2023-02-19T06:27:43;12.82;;;5.60;;
39022;SDS011;25908;51.984;5.928;2023-02-19T06:30:09;15.18;;;6.38;;
39022;SDS011;25908;51.984;5.928;2023-02-19T06:32:35;19.00;;;6.28;;
39022;SDS011;25908;51.984;5.928;2023-02-19T06:35:01;14.48;;;5.28;;
39022;SDS011;25908;51.984;5.928;2023-02-19T06:37:27;13.60;;;5.63;;
39022;SDS011;25908;51.984;5.928;2023-02-19T06:39:53;18.30;;;6.85;;
39022;SDS011;25908;51.984;5.928;2023-02-19T06:42:18;14.52;;;5.88;;
39022;SDS011;25908;51.984;5.928;2023-02-19T06:44:44;17.20;;;6.65;;
39022;SDS011;25908;51.984;5.928;2023-02-19T06:47:09;12.80;;;6.03;;
39022;SDS011;25908;51.984;5.928;2023-02-19T06:49:35;15.38;;;6.60;;
39022;SDS011;25908;51.984;5.928;2023-02-19T06:52:02;15.73;;;6.65;;
39022;SDS011;25908;51.984;5.928;2023-02-19T06:54:28;17.83;;;7.15;;
39022;SDS011;25908;51.984;5.928;2023-02-19T06:56:53;17.27;;;7.40;;
39022;SDS011;25908;51.984;5.928;2023-02-19T06:59:22;20.15;;;7.63;;
39022;SDS011;25908;51.984;5.928;2023-02-19T07:01:48;15.13;;;6.97;;
39022;SDS011;25908;51.984;5.928;2023-02-19T07:04:14;17.45;;;7.63;;
39022;SDS011;25908;51.984;5.928;2023-02-19T07:06:39;16.50;;;7.63;;
39022;SDS011;25908;51.984;5.928;2023-02-19T07:09:05;17.13;;;7.55;;
39022;SDS011;25908;51.984;5.928;2023-02-19T07:11:32;17.83;;;7.65;;
39022;SDS011;25908;51.984;5.928;2023-02-19T07:14:00;21.27;;;8.15;;
39022;SDS011;25908;51.984;5.928;2023-02-19T07:16:28;17.83;;;8.82;;
39022;SDS011;25908;51.984;5.928;2023-02-19T07:18:57;20.05;;;7.90;;
39022;SDS011;25908;51.984;5.928;2023-02-19T07:21:23;21.40;;;9.00;;
39022;SDS011;25908;51.984;5.928;2023-02-19T07:23:49;17.08;;;8.63;;
39022;SDS011;25908;51.984;5.928;2023-02-19T07:26:16;19.55;;;8.57;;
39022;SDS011;25908;51.984;5.928;2023-02-19T07:28:43;20.13;;;8.93;;
39022;SDS011;25908;51.984;5.928;2023-02-19T07:31:10;18.13;;;8.85;;
39022;SDS011;25908;51.984;5.928;2023-02-19T07:33:37;20.60;;;9.38;;
39022;SDS011;25908;51.984;5.928;2023-02-19T07:36:02;15.43;;;8.38;;
39022;SDS011;25908;51.984;5.928;2023-02-19T07:38:31;15.13;;;8.18;;
39022;SDS011;25908;51.984;5.928;2023-02-19T07:41:00;18.45;;;9.02;;
39022;SDS011;25908;51.984;5.928;2023-02-19T07:43:30;14.50;;;9.07;;
39022;SDS011;25908;51.984;5.928;2023-02-19T07:45:57;15.25;;;8.85;;
39022;SDS011;25908;51.984;5.928;2023-02-19T07:48:26;17.95;;;8.88;;
39022;SDS011;25908;51.984;5.928;2023-02-19T07:50:55;13.30;;;7.95;;
39022;SDS011;25908;51.984;5.928;2023-02-19T07:53:25;13.68;;;8.48;;
39022;SDS011;25908;51.984;5.928;2023-02-19T07:55:52;15.45;;;9.40;;
39022;SDS011;25908;51.984;5.928;2023-02-19T07:58:17;20.55;;;9.38;;
39022;SDS011;25908;51.984;5.928;2023-02-19T08:00:43;17.98;;;10.23;;
39022;SDS011;25908;51.984;5.928;2023-02-19T08:03:09;17.98;;;10.70;;
39022;SDS011;25908;51.984;5.928;2023-02-19T08:05:38;15.32;;;10.60;;
39022;SDS011;25908;51.984;5.928;2023-02-19T08:08:09;18.75;;;10.88;;
39022;SDS011;25908;51.984;5.928;2023-02-19T08:10:35;18.75;;;11.10;;
39022;SDS011;25908;51.984;5.928;2023-02-19T08:13:20;22.15;;;11.80;;
39022;SDS011;25908;51.984;5.928;2023-02-19T08:15:51;15.95;;;10.95;;
39022;SDS011;25908;51.984;5.928;2023-02-19T08:18:19;18.60;;;10.15;;
39022;SDS011;25908;51.984;5.928;2023-02-19T08:20:46;19.65;;;10.95;;
39022;SDS011;25908;51.984;5.928;2023-02-19T08:23:12;15.65;;;9.45;;
39022;SDS011;25908;51.984;5.928;2023-02-19T08:25:39;21.85;;;10.07;;
39022;SDS011;25908;51.984;5.928;2023-02-19T08:28:05;15.05;;;9.82;;
39022;SDS011;25908;51.984;5.928;2023-02-19T08:30:32;18.80;;;11.13;;
39022;SDS011;25908;51.984;5.928;2023-02-19T08:32:58;20.75;;;10.52;;
39022;SDS011;25908;51.984;5.928;2023-02-19T08:35:25;19.02;;;10.65;;
39022;SDS011;25908;51.984;5.928;2023-02-19T08:37:56;21.15;;;10.63;;
39022;SDS011;25908;51.984;5.928;2023-02-19T08:40:23;20.67;;;11.03;;
39022;SDS011;25908;51.984;5.928;2023-02-19T08:42:49;24.45;;;10.73;;
39022;SDS011;25908;51.984;5.928;2023-02-19T08:45:15;20.05;;;10.63;;
39022;SDS011;25908;51.984;5.928;2023-02-19T08:47:41;17.25;;;9.48;;
39022;SDS011;25908;51.984;5.928;2023-02-19T08:50:07;19.50;;;9.18;;
39022;SDS011;25908;51.984;5.928;2023-02-19T08:52:33;19.40;;;9.90;;
39022;SDS011;25908;51.984;5.928;2023-02-19T08:54:59;20.23;;;9.35;;
39022;SDS011;25908;51.984;5.928;2023-02-19T08:57:25;18.88;;;10.30;;
39022;SDS011;25908;51.984;5.928;2023-02-19T08:59:53;19.13;;;10.23;;
39022;SDS011;25908;51.984;5.928;2023-02-19T09:02:20;22.20;;;9.63;;
39022;SDS011;25908;51.984;5.928;2023-02-19T09:04:45;19.48;;;9.27;;
39022;SDS011;25908;51.984;5.928;2023-02-19T09:07:11;23.65;;;10.13;;
39022;SDS011;25908;51.984;5.928;2023-02-19T09:09:37;20.58;;;9.50;;
39022;SDS011;25908;51.984;5.928;2023-02-19T09:12:06;21.38;;;11.00;;
39022;SDS011;25908;51.984;5.928;2023-02-19T09:16:59;24.52;;;11.63;;
39022;SDS011;25908;51.984;5.928;2023-02-19T09:19:25;20.58;;;10.93;;
39022;SDS011;25908;51.984;5.928;2023-02-19T09:21:52;22.23;;;11.05;;
39022;SDS011;25908;51.984;5.928;2023-02-19T09:24:17;25.58;;;11.98;;
39022;SDS011;25908;51.984;5.928;2023-02-19T09:26:43;19.42;;;11.07;;
39022;SDS011;25908;51.984;5.928;2023-02-19T09:29:09;23.00;;;10.85;;
39022;SDS011;25908;51.984;5.928;2023-02-19T09:31:35;18.55;;;10.40;;
39022;SDS011;25908;51.984;5.928;2023-02-19T09:34:00;20.75;;;10.52;;
39022;SDS011;25908;51.984;5.928;2023-02-19T09:36:26;20.45;;;10.57;;
39022;SDS011;25908;51.984;5.928;2023-02-19T09:38:52;21.67;;;9.27;;
39022;SDS011;25908;51.984;5.928;2023-02-19T09:41:28;17.48;;;9.10;;
39022;SDS011;25908;51.984;5.928;2023-02-19T09:43:57;16.55;;;8.70;;
39022;SDS011;25908;51.984;5.928;2023-02-19T09:46:27;14.07;;;7.88;;
39022;SDS011;25908;51.984;5.928;2023-02-19T09:49:06;11.30;;;7.22;;
39022;SDS011;25908;51.984;5.928;2023-02-19T09:51:38;13.48;;;7.75;;
39022;SDS011;25908;51.984;5.928;2023-02-19T09:54:10;15.23;;;8.38;;
39022;SDS011;25908;51.984;5.928;2023-02-19T09:56:46;13.63;;;8.27;;
39022;SDS011;25908;51.984;5.928;2023-02-19T09:59:19;15.70;;;8.60;;
39022;SDS011;25908;51.984;5.928;2023-02-19T10:02:21;14.75;;;7.97;;
39022;SDS011;25908;51.984;5.928;2023-02-19T10:04:47;15.23;;;8.43;;
39022;SDS011;25908;51.984;5.928;2023-02-19T10:07:21;10.60;;;8.02;;
39022;SDS011;25908;51.984;5.928;2023-02-19T10:09:59;12.68;;;8.68;;
39022;SDS011;25908;51.984;5.928;2023-02-19T10:12:34;16.75;;;9.73;;
39022;SDS011;25908;51.984;5.928;2023-02-19T10:17:40;15.23;;;9.95;;
39022;SDS011;25908;51.984;5.928;2023-02-19T10:20:06;16.63;;;9.68;;
39022;SDS011;25908;51.984;5.928;2023-02-19T10:22:36;18.80;;;10.48;;
39022;SDS011;25908;51.984;5.928;2023-02-19T10:25:02;16.42;;;9.80;;
39022;SDS011;25908;51.984;5.928;2023-02-19T10:27:29;17.92;;;11.52;;
39022;SDS011;25908;51.984;5.928;2023-02-19T10:29:55;18.00;;;10.15;;
39022;SDS011;25908;51.984;5.928;2023-02-19T10:32:23;19.90;;;11.25;;
39022;SDS011;25908;51.984;5.928;2023-02-19T10:37:32;21.25;;;11.55;;
39022;SDS011;25908;51.984;5.928;2023-02-19T10:39:59;18.05;;;11.05;;
39022;SDS011;25908;51.984;5.928;2023-02-19T10:42:25;16.48;;;11.30;;
39022;SDS011;25908;51.984;5.928;2023-02-19T10:44:55;17.48;;;10.68;;
39022;SDS011;25908;51.984;5.928;2023-02-19T10:47:25;16.90;;;10.07;;
39022;SDS011;25908;51.984;5.928;2023-02-19T10:49:57;14.40;;;8.75;;
39022;SDS011;25908;51.984;5.928;2023-02-19T10:52:29;13.32;;;6.40;;
39022;SDS011;25908;51.984;5.928;2023-02-19T10:57:50;5.55;;;3.20;;
39022;SDS011;25908;51.984;5.928;2023-02-19T11:03:13;7.78;;;2.95;;
39022;SDS011;25908;51.984;5.928;2023-02-19T11:08:51;6.38;;;3.15;;
39022;SDS011;25908;51.984;5.928;2023-02-19T11:11:23;9.43;;;3.58;;
39022;SDS011;25908;51.984;5.928;2023-02-19T11:13:53;6.60;;;2.65;;
39022;SDS011;25908;51.984;5.928;2023-02-19T11:16:21;6.30;;;2.67;;
39022;SDS011;25908;51.984;5.928;2023-02-19T11:18:54;5.13;;;2.30;;
39022;SDS011;25908;51.984;5.928;2023-02-19T11:21:24;5.88;;;2.80;;
39022;SDS011;25908;51.984;5.928;2023-02-19T11:23:56;5.72;;;3.03;;
39022;SDS011;25908;51.984;5.928;2023-02-19T11:26:23;6.97;;;3.40;;
39022;SDS011;25908;51.984;5.928;2023-02-19T11:28:54;5.57;;;3.08;;
39022;SDS011;25908;51.984;5.928;2023-02-19T11:31:28;5.55;;;3.50;;
39022;SDS011;25908;51.984;5.928;2023-02-19T11:38:52;7.45;;;4.00;;
39022;SDS011;25908;51.984;5.928;2023-02-19T11:44:25;5.80;;;3.55;;
39022;SDS011;25908;51.984;5.928;2023-02-19T11:47:13;7.03;;;3.53;;
39022;SDS011;25908;51.984;5.928;2023-02-19T11:49:56;5.72;;;3.42;;
39022;SDS011;25908;51.984;5.928;2023-02-19T11:53:02;5.55;;;3.08;;
39022;SDS011;25908;51.984;5.928;2023-02-19T11:55:41;5.95;;;3.28;;
39022;SDS011;25908;51.984;5.928;2023-02-19T12:01:34;3.92;;;2.40;;
39022;SDS011;25908;51.984;5.928;2023-02-19T12:07:06;6.07;;;2.45;;
39022;SDS011;25908;51.984;5.928;2023-02-19T12:34:37;5.20;;;2.05;;
39022;SDS011;25908;51.984;5.928;2023-02-19T12:45:37;4.15;;;2.00;;
39022;SDS011;25908;51.984;5.928;2023-02-19T12:48:30;2.08;;;1.45;;
39022;SDS011;25908;51.984;5.928;2023-02-19T12:51:09;2.85;;;1.75;;
39022;SDS011;25908;51.984;5.928;2023-02-19T13:01:55;2.05;;;1.13;;
39022;SDS011;25908;51.984;5.928;2023-02-19T13:04:31;2.75;;;1.30;;
39022;SDS011;25908;51.984;5.928;2023-02-19T13:07:22;2.78;;;1.50;;
39022;SDS011;25908;51.984;5.928;2023-02-19T13:09:58;3.25;;;1.55;;
39022;SDS011;25908;51.984;5.928;2023-02-19T13:12:28;2.40;;;1.42;;
39022;SDS011;25908;51.984;5.928;2023-02-19T13:15:32;3.00;;;1.92;;
39022;SDS011;25908;51.984;5.928;2023-02-19T13:18:17;2.80;;;1.55;;
39022;SDS011;25908;51.984;5.928;2023-02-19T13:20:48;2.53;;;1.65;;
39022;SDS011;25908;51.984;5.928;2023-02-19T13:23:29;2.33;;;1.27;;
39022;SDS011;25908;51.984;5.928;2023-02-19T13:26:31;2.30;;;1.40;;
39022;SDS011;25908;51.984;5.928;2023-02-19T13:31:57;2.08;;;1.40;;
39022;SDS011;25908;51.984;5.928;2023-02-19T13:37:07;2.10;;;1.30;;
39022;SDS011;25908;51.984;5.928;2023-02-19T13:39:33;2.25;;;1.38;;
39022;SDS011;25908;51.984;5.928;2023-02-19T13:41:59;2.45;;;1.20;;
39022;SDS011;25908;51.984;5.928;2023-02-19T13:44:26;2.67;;;1.55;;
39022;SDS011;25908;51.984;5.928;2023-02-19T13:46:54;2.90;;;1.73;;
39022;SDS011;25908;51.984;5.928;2023-02-19T13:49:24;1.98;;;1.60;;
39022;SDS011;25908;51.984;5.928;2023-02-19T13:55:42;2.83;;;1.50;;
39022;SDS011;25908;51.984;5.928;2023-02-19T14:01:03;3.25;;;1.95;;
39022;SDS011;25908;51.984;5.928;2023-02-19T14:06:05;3.75;;;1.95;;
39022;SDS011;25908;51.984;5.928;2023-02-19T14:08:49;3.45;;;1.90;;
39022;SDS011;25908;51.984;5.928;2023-02-19T14:12:00;5.85;;;2.75;;
39022;SDS011;25908;51.984;5.928;2023-02-19T14:19:44;4.10;;;2.38;;
39022;SDS011;25908;51.984;5.928;2023-02-19T14:28:16;3.08;;;1.88;;
39022;SDS011;25908;51.984;5.928;2023-02-19T14:30:53;2.85;;;1.90;;
39022;SDS011;25908;51.984;5.928;2023-02-19T14:33:38;4.40;;;2.20;;
39022;SDS011;25908;51.984;5.928;2023-02-19T14:36:13;4.10;;;2.30;;
39022;SDS011;25908;51.984;5.928;2023-02-19T14:38:56;4.22;;;2.20;;
39022;SDS011;25908;51.984;5.928;2023-02-19T14:41:24;3.33;;;2.15;;
39022;SDS011;25908;51.984;5.928;2023-02-19T14:43:52;3.60;;;2.28;;
39022;SDS011;25908;51.984;5.928;2023-02-19T14:46:26;3.00;;;1.77;;
39022;SDS011;25908;51.984;5.928;2023-02-19T14:49:19;3.67;;;2.25;;
39022;SDS011;25908;51.984;5.928;2023-02-19T14:52:04;3.13;;;1.88;;
39022;SDS011;25908;51.984;5.928;2023-02-19T14:57:22;3.55;;;1.98;;
39022;SDS011;25908;51.984;5.928;2023-02-19T14:59:57;2.70;;;1.60;;
39022;SDS011;25908;51.984;5.928;2023-02-19T15:02:25;2.95;;;1.80;;
39022;SDS011;25908;51.984;5.928;2023-02-19T15:04:52;3.05;;;1.42;;
39022;SDS011;25908;51.984;5.928;2023-02-19T15:07:19;4.88;;;1.77;;
39022;SDS011;25908;51.984;5.928;2023-02-19T15:09:53;3.70;;;1.50;;
39022;SDS011;25908;51.984;5.928;2023-02-19T15:12:23;4.22;;;1.50;;
39022;SDS011;25908;51.984;5.928;2023-02-19T15:14:52;3.17;;;1.40;;
39022;SDS011;25908;51.984;5.928;2023-02-19T15:17:31;3.20;;;1.30;;
39022;SDS011;25908;51.984;5.928;2023-02-19T15:20:00;3.15;;;1.50;;
39022;SDS011;25908;51.984;5.928;2023-02-19T15:22:32;3.97;;;1.52;;
39022;SDS011;25908;51.984;5.928;2023-02-19T15:25:01;2.42;;;1.30;;
39022;SDS011;25908;51.984;5.928;2023-02-19T15:27:29;2.83;;;1.73;;
39022;SDS011;25908;51.984;5.928;2023-02-19T15:29:56;3.10;;;1.50;;
39022;SDS011;25908;51.984;5.928;2023-02-19T15:32:23;2.88;;;1.38;;
39022;SDS011;25908;51.984;5.928;2023-02-19T15:34:54;3.20;;;1.38;;
39022;SDS011;25908;51.984;5.928;2023-02-19T15:37:21;2.60;;;1.40;;
39022;SDS011;25908;51.984;5.928;2023-02-19T15:39:48;4.18;;;1.83;;
39022;SDS011;25908;51.984;5.928;2023-02-19T15:42:33;3.47;;;1.33;;
39022;SDS011;25908;51.984;5.928;2023-02-19T15:47:38;2.90;;;1.60;;
39022;SDS011;25908;51.984;5.928;2023-02-19T15:52:49;2.80;;;1.52;;
39022;SDS011;25908;51.984;5.928;2023-02-19T15:55:35;2.28;;;1.50;;
39022;SDS011;25908;51.984;5.928;2023-02-19T15:58:31;2.60;;;1.50;;
39022;SDS011;25908;51.984;5.928;2023-02-19T16:03:50;6.55;;;3.58;;
39022;SDS011;25908;51.984;5.928;2023-02-19T16:06:18;5.07;;;2.88;;
39022;SDS011;25908;51.984;5.928;2023-02-19T16:08:57;9.38;;;4.60;;
39022;SDS011;25908;51.984;5.928;2023-02-19T16:11:34;6.40;;;3.20;;
39022;SDS011;25908;51.984;5.928;2023-02-19T16:14:16;6.10;;;3.17;;
39022;SDS011;25908;51.984;5.928;2023-02-19T16:16:42;5.50;;;2.95;;
39022;SDS011;25908;51.984;5.928;2023-02-19T16:19:10;6.10;;;3.42;;
39022;SDS011;25908;51.984;5.928;2023-02-19T16:21:36;4.78;;;3.20;;
39022;SDS011;25908;51.984;5.928;2023-02-19T16:24:12;4.90;;;3.30;;
39022;SDS011;25908;51.984;5.928;2023-02-19T16:26:48;5.90;;;2.53;;
39022;SDS011;25908;51.984;5.928;2023-02-19T16:29:18;5.97;;;2.90;;
39022;SDS011;25908;51.984;5.928;2023-02-19T16:31:47;4.40;;;2.90;;
39022;SDS011;25908;51.984;5.928;2023-02-19T16:36:51;3.78;;;2.53;;
39022;SDS011;25908;51.984;5.928;2023-02-19T16:39:17;6.72;;;3.50;;
39022;SDS011;25908;51.984;5.928;2023-02-19T16:46:44;3.92;;;2.28;;
39022;SDS011;25908;51.984;5.928;2023-02-19T16:49:14;4.38;;;2.75;;
39022;SDS011;25908;51.984;5.928;2023-02-19T16:51:40;6.22;;;3.47;;
39022;SDS011;25908;51.984;5.928;2023-02-19T16:54:05;6.25;;;3.20;;
39022;SDS011;25908;51.984;5.928;2023-02-19T16:56:31;5.15;;;2.47;;
39022;SDS011;25908;51.984;5.928;2023-02-19T16:58:57;3.25;;;2.20;;
39022;SDS011;25908;51.984;5.928;2023-02-19T17:01:22;5.35;;;2.10;;
39022;SDS011;25908;51.984;5.928;2023-02-19T17:03:48;3.83;;;2.00;;
39022;SDS011;25908;51.984;5.928;2023-02-19T17:06:15;4.18;;;2.35;;
39022;SDS011;25908;51.984;5.928;2023-02-19T17:08:41;2.83;;;2.10;;
39022;SDS011;25908;51.984;5.928;2023-02-19T17:11:15;3.85;;;2.28;;